Terminal Aerodrome Forecast
Issued by NWS

Home | Current Version | Previous Version | Text Only | Print | Product List | Glossary On
Versions: 1 2 3 4 5 6 7 8 9 10 11 12 13 14 15 16 17 18 19 20 21 22 23 24 25 26 27 28
000
FTUS41 KALY 301120
TAFPSF
TAF
KPSF 301120Z 3012/3112 20005KT P6SM FEW010 SCT250
      TEMPO 3012/3014 BKN011
     FM301500 20012G18KT P6SM SCT045 BKN120
     FM302200 20012G20KT P6SM VCSH BKN045 PROB30 3022/3104
      VRB15G25KT 2SM TSRA OVC012CB
     FM310400 22010KT 4SM -SHRA BR OVC030
     FM310800 23007KT 3SM -SHRA BR OVC009=

USA.gov is the U.S. government's official web portal to all federal, state and local government web resources and services.